Time;durP1;ratioP1;P1;durP2;ratioP2;P2;SDS_P1;SDS_P2;PMS_P1;PMS_P2;Temp;Humidity;BMP_temperature;BMP_pressure;BME280_temperature;BME280_humidity;BME280_pressure;Samples;Min_cycle;Max_cycle;Signal;HPM_P1;HPM_P2
2021/12/12 00:00:17;;;;;;;;;;;;;;;;;;2082624;28;19982;-79
2021/12/12 00:01:22;;;;;;;;;;;;;;;;;;2082619;28;19924;-80
2021/12/12 00:02:33;;;;;;;;;;;;;;;;;;2082690;28;19913;-79
2021/12/12 00:03:40;;;;;;;;;;;;;;;;;;2074003;28;19913;-79
2021/12/12 00:04:44;;;;;;;;;;;;;;;;;;2074736;28;20388;-80
2021/12/12 00:05:46;;;;;;;;;;;;;;;;;;2082007;28;19920;-79
2021/12/12 00:06:49;;;;;;;;;;;;;;;;;;2082129;28;20297;-79
2021/12/12 00:07:49;;;;;;;;;;;;;;;;;;2082572;28;19928;-79
2021/12/12 00:08:54;;;;;;;;;;;;;;;;;;2082573;28;19913;-79
2021/12/12 00:09:57;;;;;;;;;;;;;;;;;;2073956;28;19921;-79
2021/12/12 00:11:00;;;;;;;;;;;;;;;;;;2074165;28;19981;-78
2021/12/12 00:12:02;;;;;;;;;;;;;;;;;;2073879;28;19914;-80
2021/12/12 00:13:08;;;;;;;;;;;;;;;;;;2073746;28;20366;-79
2021/12/12 00:14:10;;;;;;;;;;;;;;;;;;2073809;28;20499;-79
2021/12/12 00:15:25;;;;;;;;;;;;;;;;;;2066131;28;20355;-81
2021/12/12 00:16:26;;;;;;;;;;;;;;;;;;2075783;28;20004;-82
2021/12/12 00:17:26;;;;;;;;;;;;;;;;;;2074002;28;19940;-80
2021/12/12 00:18:27;;;;;;;;;;;;;;;;;;2073930;28;20358;-79
2021/12/12 00:19:30;;;;;;;;;;;;;;;;;;2082569;28;19913;-79
2021/12/12 00:20:31;;;;;;;;;;;;;;;;;;2082414;28;19913;-79
2021/12/12 00:21:35;;;;;;;;;;;;;;;;;;2082734;28;19916;-79
2021/12/12 00:22:35;;;;;;;;;;;;;;;;;;2082412;28;19917;-79
2021/12/12 00:23:36;;;;;;;;;;;;;;;;;;2082533;28;20270;-83
2021/12/12 00:24:37;;;;;;;;;;;;;;;;;;2082497;28;19920;-84
2021/12/12 00:25:44;;;;;;;;;;;;;;;;;;2082465;28;19913;-84
2021/12/12 00:26:47;;;;;;;;;;;;;;;;;;2082322;28;19952;-83
2021/12/12 00:29:22;;;;;;;;;;;;;;;;;;2082379;28;19913;-79
2021/12/12 00:30:23;;;;;;;;;;;;;;;;;;2082440;28;19914;-80
2021/12/12 00:31:27;;;;;;;;;;;;;;;;;;2073678;28;19957;-79
2021/12/12 00:32:27;;;;;;;;;;;;;;;;;;2074202;28;19914;-80
2021/12/12 00:33:28;;;;;;;;;;;;;;;;;;2082334;28;19924;-79
2021/12/12 00:34:30;;;;;;;;;;;;;;;;;;2073813;28;20012;-79
2021/12/12 00:35:33;;;;;;;;;;;;;;;;;;2073574;28;19928;-80
2021/12/12 00:36:34;;;;;;;;;;;;;;;;;;2082138;28;19948;-83
2021/12/12 00:37:35;;;;;;;;;;;;;;;;;;2082238;28;19917;-83
2021/12/12 00:38:36;;;;;;;;;;;;;;;;;;2082392;28;19913;-83
2021/12/12 00:39:39;;;;;;;;;;;;;;;;;;2082333;28;19921;-83
2021/12/12 00:40:43;;;;;;;;;;;;;;;;;;2082288;28;19949;-83
2021/12/12 00:41:56;;;;;;;;;;;;;;;;;;2082338;28;19913;-83
2021/12/12 00:42:57;;;;;;;;;;;;;;;;;;2082444;28;20575;-83
2021/12/12 00:43:59;;;;;;;;;;;;;;;;;;2082308;28;20015;-82
2021/12/12 00:45:02;;;;;;;;;;;;;;;;;;2082326;28;19913;-83
2021/12/12 00:46:05;;;;;;;;;;;;;;;;;;2082094;28;19921;-82
2021/12/12 00:47:07;;;;;;;;;;;;;;;;;;2073703;28;19920;-82
2021/12/12 00:48:07;;;;;;;;;;;;;;;;;;2072693;28;19913;-83
2021/12/12 00:49:09;;;;;;;;;;;;;;;;;;2082247;28;20365;-84
2021/12/12 00:50:17;;;;;;;;;;;;;;;;;;2082232;28;19920;-82
2021/12/12 00:51:26;;;;;;;;;;;;;;;;;;2082292;28;19924;-83
2021/12/12 00:52:26;;;;;;;;;;;;;;;;;;2082242;28;19913;-83
2021/12/12 00:53:26;;;;;;;;;;;;;;;;;;2082231;28;20011;-82
2021/12/12 00:54:31;;;;;;;;;;;;;;;;;;2082183;28;19913;-82
2021/12/12 00:55:37;;;;;;;;;;;;;;;;;;2082050;28;19917;-84
2021/12/12 00:56:38;;;;;;;;;;;;;;;;;;2082119;28;19983;-84
2021/12/12 00:57:38;;;;;;;;;;;;;;;;;;2082236;28;20446;-83
2021/12/12 00:58:39;;;;;;;;;;;;;;;;;;2082198;28;20364;-82
2021/12/12 00:59:39;;;;;;;;;;;;;;;;;;2082144;28;19913;-82
2021/12/12 01:00:48;;;;;;;;;;;;;;;;;;2082101;28;19920;-83
2021/12/12 01:01:50;;;;;;;;;;;;;;;;;;2082190;28;20362;-84
2021/12/12 01:02:51;;;;;;;;;;;;;;;;;;2082021;28;19913;-85
2021/12/12 01:03:53;;;;;;;;;;;;;;;;;;2082213;28;20353;-82
2021/12/12 01:04:56;;;;;;;;;;;;;;;;;;2082180;28;19924;-83
2021/12/12 01:05:58;;;;;;;;;;;;;;;;;;2082045;28;19913;-83
2021/12/12 01:07:00;;;;;;;;;;;;;;;;;;2081994;28;19925;-83
2021/12/12 01:08:00;;;;;;;;;;;;;;;;;;2073463;28;19941;-83
2021/12/12 01:09:03;;;;;;;;;;;;;;;;;;2065369;28;19921;-83
2021/12/12 01:10:26;;;;;;;;;;;;;;;;;;2073719;28;20004;-84
2021/12/12 01:11:32;;;;;;;;;;;;;;;;;;2073493;28;20370;-82
2021/12/12 01:12:33;;;;;;;;;;;;;;;;;;2074322;28;20385;-82
2021/12/12 01:13:33;;;;;;;;;;;;;;;;;;2082030;28;19953;-82
2021/12/12 01:14:37;;;;;;;;;;;;;;;;;;2082155;28;20039;-82
2021/12/12 01:15:41;;;;;;;;;;;;;;;;;;2081856;28;20365;-82
2021/12/12 01:16:56;;;;;;;;;;;;;;;;;;2082058;28;19917;-83
2021/12/12 01:17:59;;;;;;;;;;;;;;;;;;2082030;28;19992;-83
2021/12/12 01:19:05;;;;;;;;;;;;;;;;;;2082069;28;19978;-82
2021/12/12 01:20:10;;;;;;;;;;;;;;;;;;2082091;28;19959;-83
2021/12/12 01:21:14;;;;;;;;;;;;;;;;;;2081922;28;19923;-83
2021/12/12 01:22:49;;;;;;;;;;;;;;;;;;2073505;28;20012;-83
2021/12/12 01:23:53;;;;;;;;;;;;;;;;;;2073005;28;20004;-84
2021/12/12 01:24:57;;;;;;;;;;;;;;;;;;2082029;28;19924;-85
2021/12/12 01:25:58;;;;;;;;;;;;;;;;;;2081877;28;19979;-84
2021/12/12 01:26:59;;;;;;;;;;;;;;;;;;2081992;28;20019;-83
2021/12/12 01:27:59;;;;;;;;;;;;;;;;;;2073339;28;19924;-84
2021/12/12 01:29:00;;;;;;;;;;;;;;;;;;2073349;28;20392;-83
2021/12/12 01:30:01;;;;;;;;;;;;;;;;;;2081955;28;20335;-83
2021/12/12 01:31:08;;;;;;;;;;;;;;;;;;2081885;28;20271;-84
2021/12/12 01:32:12;;;;;;;;;;;;;;;;;;2081970;28;20121;-83
2021/12/12 01:33:21;;;;;;;;;;;;;;;;;;2073201;28;19967;-84
2021/12/12 01:34:25;;;;;;;;;;;;;;;;;;2066283;28;19924;-83
2021/12/12 01:35:26;;;;;;;;;;;;;;;;;;2065216;28;19996;-83
2021/12/12 01:36:42;;;;;;;;;;;;;;;;;;2073340;28;19996;-83
2021/12/12 01:39:07;;;;;;;;;;;;;;;;;;2074851;28;19921;-83
2021/12/12 01:40:10;;;;;;;;;;;;;;;;;;2081851;28;19921;-83
2021/12/12 01:41:11;;;;;;;;;;;;;;;;;;2081924;28;19913;-83
2021/12/12 01:42:20;;;;;;;;;;;;;;;;;;2081793;28;20321;-83
2021/12/12 01:43:26;;;;;;;;;;;;;;;;;;2081862;28;19913;-84
2021/12/12 01:44:32;;;;;;;;;;;;;;;;;;2073015;28;20398;-83
2021/12/12 01:45:35;;;;;;;;;;;;;;;;;;2073785;28;20004;-84
2021/12/12 01:46:40;;;;;;;;;;;;;;;;;;2073091;28;19917;-84
2021/12/12 01:47:44;;;;;;;;;;;;;;;;;;2073870;28;20283;-83
2021/12/12 01:48:52;;;;;;;;;;;;;;;;;;2081805;28;19913;-84
2021/12/12 01:49:55;;;;;;;;;;;;;;;;;;2073143;28;19913;-84
2021/12/12 01:50:57;;;;;;;;;;;;;;;;;;2073473;28;19913;-83
2021/12/12 01:51:58;;;;;;;;;;;;;;;;;;2081771;28;20346;-84
2021/12/12 01:52:59;;;;;;;;;;;;;;;;;;2081805;28;19913;-83
2021/12/12 01:54:03;;;;;;;;;;;;;;;;;;2073095;28;19968;-83
2021/12/12 01:55:21;;;;;;;;;;;;;;;;;;2073595;28;19925;-83
2021/12/12 01:56:23;;;;;;;;;;;;;;;;;;2081161;28;19913;-84
2021/12/12 01:57:28;;;;;;;;;;;;;;;;;;2081370;28;19913;-83
2021/12/12 01:58:30;;;;;;;;;;;;;;;;;;2081769;28;19928;-83
2021/12/12 01:59:32;;;;;;;;;;;;;;;;;;2081444;28;19956;-84
2021/12/12 02:00:36;;;;;;;;;;;;;;;;;;2081671;28;20004;-82
2021/12/12 02:01:57;;;;;;;;;;;;;;;;;;2081728;28;19983;-82
2021/12/12 02:02:57;;;;;;;;;;;;;;;;;;2073086;28;20092;-83
2021/12/12 02:04:02;;;;;;;;;;;;;;;;;;2073186;28;19988;-81
2021/12/12 02:05:06;;;;;;;;;;;;;;;;;;2072955;28;19940;-84
2021/12/12 02:06:16;;;;;;;;;;;;;;;;;;2073399;28;19945;-83
2021/12/12 02:07:18;;;;;;;;;;;;;;;;;;2081753;28;20325;-83
2021/12/12 02:08:18;;;;;;;;;;;;;;;;;;2081758;28;20004;-84
2021/12/12 02:09:19;;;;;;;;;;;;;;;;;;2072976;28;20386;-84
2021/12/12 02:10:22;;;;;;;;;;;;;;;;;;2073179;28;19929;-84
2021/12/12 02:11:24;;;;;;;;;;;;;;;;;;2081597;28;19913;-80
2021/12/12 02:12:25;;;;;;;;;;;;;;;;;;2081727;28;19984;-84
2021/12/12 02:13:27;;;;;;;;;;;;;;;;;;2081564;28;20376;-83
2021/12/12 02:14:29;;;;;;;;;;;;;;;;;;2081784;28;20293;-84
2021/12/12 02:15:31;;;;;;;;;;;;;;;;;;2081546;28;20332;-84
2021/12/12 02:16:32;;;;;;;;;;;;;;;;;;2081665;28;19924;-83
2021/12/12 02:17:39;;;;;;;;;;;;;;;;;;2072928;28;19952;-85
2021/12/12 02:18:44;;;;;;;;;;;;;;;;;;2074024;28;19924;-83
2021/12/12 02:20:04;;;;;;;;;;;;;;;;;;2081604;28;19917;-83
2021/12/12 02:21:12;;;;;;;;;;;;;;;;;;2072987;28;19940;-83
2021/12/12 02:23:58;;;;;;;;;;;;;;;;;;2081627;28;19913;-83
2021/12/12 02:35:46;;;;;;;;;;;;;;;;;;2081516;28;19999;-84
2021/12/12 02:36:46;;;;;;;;;;;;;;;;;;2081480;28;19913;-84
2021/12/12 02:37:48;;;;;;;;;;;;;;;;;;2081526;28;20366;-84
2021/12/12 02:38:50;;;;;;;;;;;;;;;;;;2081471;28;20453;-84
2021/12/12 02:39:50;;;;;;;;;;;;;;;;;;2081568;28;19913;-84
2021/12/12 02:40:55;;;;;;;;;;;;;;;;;;2081498;28;19920;-84
2021/12/12 02:41:58;;;;;;;;;;;;;;;;;;2081512;28;19914;-84
2021/12/12 02:42:58;;;;;;;;;;;;;;;;;;2075540;28;20182;-83
2021/12/12 02:44:01;;;;;;;;;;;;;;;;;;2081130;28;20345;-83
2021/12/12 02:45:03;;;;;;;;;;;;;;;;;;2081454;28;20011;-84
2021/12/12 02:46:04;;;;;;;;;;;;;;;;;;2081408;28;20400;-84
2021/12/12 02:47:11;;;;;;;;;;;;;;;;;;2081475;28;19924;-84
2021/12/12 02:48:17;;;;;;;;;;;;;;;;;;2072898;28;19914;-83
2021/12/12 02:50:46;;;;;;;;;;;;;;;;;;2050773;28;19914;-83
2021/12/12 02:51:46;;;;;;;;;;;;;;;;;;2081502;28;20384;-84
2021/12/12 02:52:48;;;;;;;;;;;;;;;;;;2081462;28;19913;-84
2021/12/12 02:53:54;;;;;;;;;;;;;;;;;;2081528;28;19913;-83
2021/12/12 02:55:00;;;;;;;;;;;;;;;;;;2081425;28;20222;-83
2021/12/12 02:56:03;;;;;;;;;;;;;;;;;;2072733;28;20382;-85
2021/12/12 02:57:04;;;;;;;;;;;;;;;;;;2073319;28;19913;-85
2021/12/12 02:58:05;;;;;;;;;;;;;;;;;;2081446;28;20364;-85
2021/12/12 02:59:07;;;;;;;;;;;;;;;;;;2081411;28;19917;-85
2021/12/12 03:00:09;;;;;;;;;;;;;;;;;;2072715;28;19926;-85
2021/12/12 03:01:15;;;;;;;;;;;;;;;;;;2072984;28;19914;-85
2021/12/12 03:02:18;;;;;;;;;;;;;;;;;;2082129;28;19917;-83
2021/12/12 03:03:18;;;;;;;;;;;;;;;;;;2081444;28;20381;-81
2021/12/12 03:04:20;;;;;;;;;;;;;;;;;;2081388;28;19913;-80
2021/12/12 03:05:21;;;;;;;;;;;;;;;;;;2081401;28;19917;-81
2021/12/12 03:06:23;;;;;;;;;;;;;;;;;;2081221;28;20364;-80
2021/12/12 03:07:24;;;;;;;;;;;;;;;;;;2081446;28;20270;-81
2021/12/12 03:08:26;;;;;;;;;;;;;;;;;;2072729;28;19968;-81
2021/12/12 03:09:33;;;;;;;;;;;;;;;;;;2073045;28;19921;-81
2021/12/12 03:10:35;;;;;;;;;;;;;;;;;;2072750;28;19913;-81
2021/12/12 03:11:35;;;;;;;;;;;;;;;;;;2065777;28;19918;-81
2021/12/12 03:12:36;;;;;;;;;;;;;;;;;;2074389;28;19913;-81
2021/12/12 03:13:37;;;;;;;;;;;;;;;;;;2082975;28;19913;-81
2021/12/12 03:14:38;;;;;;;;;;;;;;;;;;2083010;28;19939;-81
2021/12/12 03:15:40;;;;;;;;;;;;;;;;;;2082822;28;19917;-81
2021/12/12 03:16:40;;;;;;;;;;;;;;;;;;2082953;28;19949;-81
2021/12/12 03:17:42;;;;;;;;;;;;;;;;;;2074222;28;19913;-82
2021/12/12 03:18:44;;;;;;;;;;;;;;;;;;2074338;28;20370;-82
2021/12/12 03:19:49;;;;;;;;;;;;;;;;;;2074578;28;19913;-82
2021/12/12 03:20:51;;;;;;;;;;;;;;;;;;2083063;28;20013;-82
2021/12/12 03:21:53;;;;;;;;;;;;;;;;;;2082978;28;20350;-81
2021/12/12 03:22:59;;;;;;;;;;;;;;;;;;2082939;28;19913;-82
2021/12/12 03:24:05;;;;;;;;;;;;;;;;;;2083078;28;19923;-82
2021/12/12 03:25:07;;;;;;;;;;;;;;;;;;2082910;28;19986;-82
2021/12/12 03:26:09;;;;;;;;;;;;;;;;;;2082720;28;19975;-82
2021/12/12 03:27:09;;;;;;;;;;;;;;;;;;2082970;28;19918;-81
2021/12/12 03:28:12;;;;;;;;;;;;;;;;;;2074219;28;19975;-81
2021/12/12 03:29:12;;;;;;;;;;;;;;;;;;2074248;28;20313;-81
2021/12/12 03:30:13;;;;;;;;;;;;;;;;;;2074350;28;19913;-81
2021/12/12 03:31:15;;;;;;;;;;;;;;;;;;2082907;28;19979;-82
2021/12/12 03:32:17;;;;;;;;;;;;;;;;;;2082905;28;20267;-82
2021/12/12 03:33:18;;;;;;;;;;;;;;;;;;2074118;28;19924;-81
2021/12/12 03:34:21;;;;;;;;;;;;;;;;;;2074256;28;19924;-81
2021/12/12 03:35:21;;;;;;;;;;;;;;;;;;2082672;28;19917;-83
2021/12/12 03:36:25;;;;;;;;;;;;;;;;;;2074094;28;19991;-82
2021/12/12 03:37:29;;;;;;;;;;;;;;;;;;2074516;28;19924;-82
2021/12/12 03:38:30;;;;;;;;;;;;;;;;;;2082790;28;19979;-83
2021/12/12 03:39:32;;;;;;;;;;;;;;;;;;2082765;28;19913;-82
2021/12/12 03:40:37;;;;;;;;;;;;;;;;;;2082908;28;19912;-82
2021/12/12 03:41:40;;;;;;;;;;;;;;;;;;2082788;28;20003;-82
2021/12/12 03:42:54;;;;;;;;;;;;;;;;;;2082890;28;19924;-83
2021/12/12 03:43:58;;;;;;;;;;;;;;;;;;2082779;28;19921;-84
2021/12/12 03:45:02;;;;;;;;;;;;;;;;;;2082744;28;19923;-83
2021/12/12 03:46:05;;;;;;;;;;;;;;;;;;2082573;28;19967;-84
2021/12/12 03:47:12;;;;;;;;;;;;;;;;;;2082765;28;19927;-84
2021/12/12 03:48:19;;;;;;;;;;;;;;;;;;2074082;28;19992;-84
2021/12/12 03:49:19;;;;;;;;;;;;;;;;;;2075119;28;20190;-84
2021/12/12 03:50:21;;;;;;;;;;;;;;;;;;2082768;28;19956;-84
2021/12/12 03:51:24;;;;;;;;;;;;;;;;;;2074045;28;19917;-84
2021/12/12 03:52:27;;;;;;;;;;;;;;;;;;2074077;28;19925;-84
2021/12/12 03:53:28;;;;;;;;;;;;;;;;;;2066203;28;19961;-85
2021/12/12 03:54:29;;;;;;;;;;;;;;;;;;2065905;28;19980;-84
2021/12/12 03:55:29;;;;;;;;;;;;;;;;;;2073841;28;19917;-84
2021/12/12 03:56:29;;;;;;;;;;;;;;;;;;2082639;28;20354;-84
2021/12/12 03:57:30;;;;;;;;;;;;;;;;;;2082653;28;20350;-84
2021/12/12 03:58:32;;;;;;;;;;;;;;;;;;2082739;28;19913;-84
2021/12/12 03:59:33;;;;;;;;;;;;;;;;;;2082695;28;19928;-84
2021/12/12 04:00:37;;;;;;;;;;;;;;;;;;2082654;28;20270;-85
2021/12/12 04:01:44;;;;;;;;;;;;;;;;;;2073837;28;20000;-84
2021/12/12 04:02:45;;;;;;;;;;;;;;;;;;2066736;28;19914;-84
2021/12/12 04:03:46;;;;;;;;;;;;;;;;;;2074020;28;20481;-84
2021/12/12 04:04:47;;;;;;;;;;;;;;;;;;2074170;28;20299;-84
2021/12/12 04:05:53;;;;;;;;;;;;;;;;;;2082472;28;19940;-84
2021/12/12 04:06:54;;;;;;;;;;;;;;;;;;2082547;28;20301;-84
2021/12/12 04:07:55;;;;;;;;;;;;;;;;;;2082603;28;19913;-84
2021/12/12 04:08:55;;;;;;;;;;;;;;;;;;2073855;28;19918;-84
2021/12/12 04:09:56;;;;;;;;;;;;;;;;;;2065770;28;19953;-83
2021/12/12 04:10:57;;;;;;;;;;;;;;;;;;2074059;28;19925;-84
2021/12/12 04:11:59;;;;;;;;;;;;;;;;;;2082741;28;20316;-84
2021/12/12 04:12:59;;;;;;;;;;;;;;;;;;2082525;28;20385;-84
2021/12/12 04:13:59;;;;;;;;;;;;;;;;;;2082610;28;19920;-85
2021/12/12 04:15:00;;;;;;;;;;;;;;;;;;2082494;28;19924;-84
2021/12/12 04:16:02;;;;;;;;;;;;;;;;;;2082586;28;19924;-84
2021/12/12 04:17:07;;;;;;;;;;;;;;;;;;2082451;28;20027;-84
2021/12/12 04:18:08;;;;;;;;;;;;;;;;;;2082532;28;19924;-83
2021/12/12 04:19:08;;;;;;;;;;;;;;;;;;2082391;28;19924;-84
2021/12/12 04:20:21;;;;;;;;;;;;;;;;;;2082632;28;19920;-84
2021/12/12 04:21:22;;;;;;;;;;;;;;;;;;2073839;28;20492;-84
2021/12/12 04:22:23;;;;;;;;;;;;;;;;;;2073848;28;19977;-84
2021/12/12 04:23:25;;;;;;;;;;;;;;;;;;2082492;28;19921;-83
2021/12/12 04:24:29;;;;;;;;;;;;;;;;;;2082645;28;20015;-83
2021/12/12 04:25:30;;;;;;;;;;;;;;;;;;2082380;28;19935;-83
2021/12/12 04:26:35;;;;;;;;;;;;;;;;;;2082505;28;19987;-83
2021/12/12 04:27:35;;;;;;;;;;;;;;;;;;2082444;28;19916;-84
2021/12/12 04:28:36;;;;;;;;;;;;;;;;;;2082488;28;19948;-83
2021/12/12 04:29:37;;;;;;;;;;;;;;;;;;2082457;28;20346;-84
2021/12/12 04:30:38;;;;;;;;;;;;;;;;;;2082468;28;19913;-83
2021/12/12 04:31:41;;;;;;;;;;;;;;;;;;2082388;28;19982;-83
2021/12/12 04:32:42;;;;;;;;;;;;;;;;;;2082466;28;19913;-83
2021/12/12 04:33:42;;;;;;;;;;;;;;;;;;2082370;28;19917;-83
2021/12/12 04:34:48;;;;;;;;;;;;;;;;;;2082440;28;19924;-83
2021/12/12 04:35:48;;;;;;;;;;;;;;;;;;2073606;28;19921;-83
2021/12/12 04:36:49;;;;;;;;;;;;;;;;;;2073780;28;20355;-83
2021/12/12 04:37:49;;;;;;;;;;;;;;;;;;2082215;28;19976;-83
2021/12/12 04:38:49;;;;;;;;;;;;;;;;;;2082338;28;19967;-83
2021/12/12 04:39:53;;;;;;;;;;;;;;;;;;2082311;28;19948;-83
2021/12/12 04:40:53;;;;;;;;;;;;;;;;;;2082353;28;19913;-83
2021/12/12 04:41:58;;;;;;;;;;;;;;;;;;2082292;28;20015;-83
2021/12/12 04:42:58;;;;;;;;;;;;;;;;;;2082393;28;19913;-83
2021/12/12 04:43:59;;;;;;;;;;;;;;;;;;2082297;28;19913;-83
2021/12/12 04:45:17;;;;;;;;;;;;;;;;;;2082474;28;19948;-83
2021/12/12 04:46:24;;;;;;;;;;;;;;;;;;2082187;28;20371;-84
2021/12/12 04:50:17;;;;;;;;;;;;;;;;;;2082354;28;19922;-83
2021/12/12 04:51:18;;;;;;;;;;;;;;;;;;2073635;28;19924;-83
2021/12/12 04:52:20;;;;;;;;;;;;;;;;;;2073565;28;19914;-83
2021/12/12 04:53:32;;;;;;;;;;;;;;;;;;2082343;28;19917;-83
2021/12/12 04:54:38;;;;;;;;;;;;;;;;;;2082240;28;19913;-84
2021/12/12 04:55:47;;;;;;;;;;;;;;;;;;2082139;28;19963;-84
2021/12/12 04:56:47;;;;;;;;;;;;;;;;;;2082251;28;19913;-84
2021/12/12 04:57:56;;;;;;;;;;;;;;;;;;2082372;28;19913;-84
2021/12/12 04:59:15;;;;;;;;;;;;;;;;;;2073461;28;20378;-84
2021/12/12 05:00:18;;;;;;;;;;;;;;;;;;2073476;28;19997;-83
2021/12/12 05:01:35;;;;;;;;;;;;;;;;;;2073412;28;19914;-84
2021/12/12 05:02:43;;;;;;;;;;;;;;;;;;2067501;28;19926;-84
2021/12/12 05:03:50;;;;;;;;;;;;;;;;;;2073495;28;20274;-84
2021/12/12 05:05:09;;;;;;;;;;;;;;;;;;2074432;28;20400;-84
2021/12/12 05:06:21;;;;;;;;;;;;;;;;;;2073333;28;19925;-84
2021/12/12 05:07:30;;;;;;;;;;;;;;;;;;2066749;28;19925;-84
2021/12/12 05:08:39;;;;;;;;;;;;;;;;;;2074653;28;19914;-84
2021/12/12 05:09:56;;;;;;;;;;;;;;;;;;2081723;28;19931;-84
2021/12/12 05:11:05;;;;;;;;;;;;;;;;;;2082169;28;19943;-84
2021/12/12 05:12:11;;;;;;;;;;;;;;;;;;2082285;28;19967;-84
2021/12/12 05:13:17;;;;;;;;;;;;;;;;;;2082054;28;19913;-84
2021/12/12 05:14:22;;;;;;;;;;;;;;;;;;2082147;28;20267;-84
2021/12/12 05:15:26;;;;;;;;;;;;;;;;;;2082012;28;19918;-84
2021/12/12 05:16:29;;;;;;;;;;;;;;;;;;2082091;28;19924;-83
2021/12/12 05:17:37;;;;;;;;;;;;;;;;;;2073394;28;19921;-83
2021/12/12 05:18:41;;;;;;;;;;;;;;;;;;2074605;28;20524;-83
2021/12/12 05:19:45;;;;;;;;;;;;;;;;;;2082052;28;19982;-82
2021/12/12 05:20:52;;;;;;;;;;;;;;;;;;2082174;28;19921;-83
2021/12/12 05:21:55;;;;;;;;;;;;;;;;;;2073318;28;20646;-82
2021/12/12 05:22:58;;;;;;;;;;;;;;;;;;2073740;28;19940;-83
2021/12/12 05:24:00;;;;;;;;;;;;;;;;;;2082166;28;20354;-83
2021/12/12 05:25:01;;;;;;;;;;;;;;;;;;2073471;28;19941;-84
2021/12/12 05:26:06;;;;;;;;;;;;;;;;;;2065177;28;19914;-83
2021/12/12 05:27:09;;;;;;;;;;;;;;;;;;2074052;28;19913;-83
2021/12/12 05:28:10;;;;;;;;;;;;;;;;;;2081886;28;20298;-83
2021/12/12 05:29:14;;;;;;;;;;;;;;;;;;2082086;28;19924;-83
2021/12/12 05:30:16;;;;;;;;;;;;;;;;;;2073239;28;19914;-83
2021/12/12 05:31:18;;;;;;;;;;;;;;;;;;2065486;28;20381;-85
2021/12/12 05:32:19;;;;;;;;;;;;;;;;;;2073416;28;20350;-84
2021/12/12 05:33:20;;;;;;;;;;;;;;;;;;2073452;28;19924;-83
2021/12/12 05:34:23;;;;;;;;;;;;;;;;;;2064548;28;20358;-83
2021/12/12 05:35:26;;;;;;;;;;;;;;;;;;2073564;28;19917;-83
2021/12/12 05:36:27;;;;;;;;;;;;;;;;;;2081952;28;19917;-83
2021/12/12 05:37:28;;;;;;;;;;;;;;;;;;2073233;28;19984;-83
2021/12/12 05:38:29;;;;;;;;;;;;;;;;;;2073296;28;19921;-83
2021/12/12 05:39:30;;;;;;;;;;;;;;;;;;2073256;28;19987;-83
2021/12/12 05:40:31;;;;;;;;;;;;;;;;;;2073241;28;20367;-83
2021/12/12 05:41:31;;;;;;;;;;;;;;;;;;2073344;28;19998;-83
2021/12/12 05:42:32;;;;;;;;;;;;;;;;;;2073205;28;19921;-83
2021/12/12 05:43:33;;;;;;;;;;;;;;;;;;2082016;28;19924;-83
2021/12/12 05:44:33;;;;;;;;;;;;;;;;;;2073236;28;20351;-84
2021/12/12 05:45:34;;;;;;;;;;;;;;;;;;2073211;28;19936;-83
2021/12/12 05:46:35;;;;;;;;;;;;;;;;;;2081760;28;20071;-83
2021/12/12 05:47:35;;;;;;;;;;;;;;;;;;2081896;28;19921;-83
2021/12/12 05:48:36;;;;;;;;;;;;;;;;;;2081799;28;19917;-83
2021/12/12 05:49:41;;;;;;;;;;;;;;;;;;2081814;28;20253;-84
2021/12/12 05:50:41;;;;;;;;;;;;;;;;;;2073056;28;20008;-83
2021/12/12 05:51:42;;;;;;;;;;;;;;;;;;2073211;28;20298;-83
2021/12/12 05:52:43;;;;;;;;;;;;;;;;;;2081302;28;19987;-83
2021/12/12 05:53:44;;;;;;;;;;;;;;;;;;2073058;28;19924;-83
2021/12/12 05:54:46;;;;;;;;;;;;;;;;;;2073282;28;19913;-82
2021/12/12 05:55:48;;;;;;;;;;;;;;;;;;2081187;28;19921;-82
2021/12/12 05:56:48;;;;;;;;;;;;;;;;;;2081799;28;19913;-82
2021/12/12 05:57:54;;;;;;;;;;;;;;;;;;2073038;28;19913;-82
2021/12/12 05:58:55;;;;;;;;;;;;;;;;;;2065703;28;19918;-83
2021/12/12 05:59:56;;;;;;;;;;;;;;;;;;2073147;28;19976;-83
2021/12/12 06:00:59;;;;;;;;;;;;;;;;;;2073079;28;19918;-83
2021/12/12 06:02:03;;;;;;;;;;;;;;;;;;2073414;28;19928;-82
2021/12/12 06:03:14;;;;;;;;;;;;;;;;;;2081734;28;19913;-83
2021/12/12 06:04:16;;;;;;;;;;;;;;;;;;2073085;28;20354;-82
2021/12/12 06:05:17;;;;;;;;;;;;;;;;;;2073386;28;19968;-82
2021/12/12 06:06:18;;;;;;;;;;;;;;;;;;2081344;28;19924;-82
2021/12/12 06:07:19;;;;;;;;;;;;;;;;;;2073040;28;19918;-82
2021/12/12 06:08:21;;;;;;;;;;;;;;;;;;2073016;28;20040;-83
2021/12/12 06:09:21;;;;;;;;;;;;;;;;;;2064967;28;19925;-82
2021/12/12 06:10:22;;;;;;;;;;;;;;;;;;2073062;28;20020;-82
2021/12/12 06:11:23;;;;;;;;;;;;;;;;;;2081697;28;19939;-83
2021/12/12 06:12:24;;;;;;;;;;;;;;;;;;2081157;28;19921;-82
2021/12/12 06:13:25;;;;;;;;;;;;;;;;;;2081233;28;19921;-83
2021/12/12 06:14:27;;;;;;;;;;;;;;;;;;2081642;28;19917;-83
2021/12/12 06:15:30;;;;;;;;;;;;;;;;;;2081549;28;19917;-82
2021/12/12 06:16:31;;;;;;;;;;;;;;;;;;2081601;28;20012;-83
2021/12/12 06:17:32;;;;;;;;;;;;;;;;;;2081667;28;19913;-82
2021/12/12 06:18:34;;;;;;;;;;;;;;;;;;2081620;28;19923;-82
2021/12/12 06:19:35;;;;;;;;;;;;;;;;;;2072951;28;19914;-82
2021/12/12 06:20:35;;;;;;;;;;;;;;;;;;2073053;28;19921;-81
2021/12/12 06:21:36;;;;;;;;;;;;;;;;;;2081665;28;19921;-82
2021/12/12 06:22:36;;;;;;;;;;;;;;;;;;2081417;28;19940;-82
2021/12/12 06:23:37;;;;;;;;;;;;;;;;;;2081567;28;19920;-83
2021/12/12 06:24:40;;;;;;;;;;;;;;;;;;2081513;28;19920;-82
2021/12/12 06:25:40;;;;;;;;;;;;;;;;;;2081003;28;19967;-82
2021/12/12 06:26:40;;;;;;;;;;;;;;;;;;2081077;28;19920;-82
2021/12/12 06:27:41;;;;;;;;;;;;;;;;;;2081609;28;19924;-83
2021/12/12 06:28:41;;;;;;;;;;;;;;;;;;2072859;28;20014;-83
2021/12/12 06:29:42;;;;;;;;;;;;;;;;;;2073137;28;19924;-83
2021/12/12 06:30:42;;;;;;;;;;;;;;;;;;2072924;28;19913;-83
2021/12/12 06:31:45;;;;;;;;;;;;;;;;;;2073106;28;20396;-83
2021/12/12 06:32:46;;;;;;;;;;;;;;;;;;2081575;28;19975;-82
2021/12/12 06:33:47;;;;;;;;;;;;;;;;;;2081612;28;19924;-83
2021/12/12 06:34:48;;;;;;;;;;;;;;;;;;2081580;28;20074;-82
2021/12/12 06:35:49;;;;;;;;;;;;;;;;;;2081590;28;20374;-83
2021/12/12 06:36:50;;;;;;;;;;;;;;;;;;2081665;28;19913;-83
2021/12/12 06:37:51;;;;;;;;;;;;;;;;;;2072886;28;19913;-83
2021/12/12 06:38:53;;;;;;;;;;;;;;;;;;2073009;28;19913;-84
2021/12/12 06:39:54;;;;;;;;;;;;;;;;;;2072957;28;19914;-82
2021/12/12 06:40:54;;;;;;;;;;;;;;;;;;2073146;28;19913;-82
2021/12/12 06:41:55;;;;;;;;;;;;;;;;;;2081586;28;20410;-82
2021/12/12 06:42:56;;;;;;;;;;;;;;;;;;2081513;28;20406;-82
2021/12/12 06:44:01;;;;;;;;;;;;;;;;;;2081524;28;19917;-83
2021/12/12 06:45:03;;;;;;;;;;;;;;;;;;2081541;28;20325;-83
2021/12/12 06:46:04;;;;;;;;;;;;;;;;;;2072814;28;19914;-82
2021/12/12 06:47:06;;;;;;;;;;;;;;;;;;2066639;28;19987;-82
2021/12/12 06:48:11;;;;;;;;;;;;;;;;;;2074851;28;19921;-82
2021/12/12 06:49:13;;;;;;;;;;;;;;;;;;2083108;28;20000;-81
2021/12/12 06:50:13;;;;;;;;;;;;;;;;;;2074653;28;19943;-83
2021/12/12 06:51:14;;;;;;;;;;;;;;;;;;2074651;28;20008;-83
2021/12/12 06:52:15;;;;;;;;;;;;;;;;;;2074550;28;20016;-83
2021/12/12 06:53:17;;;;;;;;;;;;;;;;;;2074538;28;19917;-82
2021/12/12 06:54:23;;;;;;;;;;;;;;;;;;2074517;28;19924;-83
2021/12/12 06:55:25;;;;;;;;;;;;;;;;;;2074313;28;20406;-82
2021/12/12 06:56:26;;;;;;;;;;;;;;;;;;2074807;28;19917;-82
2021/12/12 06:57:30;;;;;;;;;;;;;;;;;;2083172;28;19916;-82
2021/12/12 06:58:30;;;;;;;;;;;;;;;;;;2083134;28;19912;-82
2021/12/12 06:59:32;;;;;;;;;;;;;;;;;;2074960;28;19913;-80
2021/12/12 07:00:33;;;;;;;;;;;;;;;;;;2075350;28;19913;-81
2021/12/12 07:01:34;;;;;;;;;;;;;;;;;;2083920;28;19913;-81
2021/12/12 07:02:35;;;;;;;;;;;;;;;;;;2083869;28;20250;-81
2021/12/12 07:03:36;;;;;;;;;;;;;;;;;;2074846;28;19921;-82
2021/12/12 07:04:38;;;;;;;;;;;;;;;;;;2074614;28;19925;-81
2021/12/12 07:05:38;;;;;;;;;;;;;;;;;;2083028;28;19913;-82
2021/12/12 07:06:39;;;;;;;;;;;;;;;;;;2083081;28;19917;-81
2021/12/12 07:07:40;;;;;;;;;;;;;;;;;;2074341;28;19913;-81
2021/12/12 07:08:40;;;;;;;;;;;;;;;;;;2074588;28;19913;-82
2021/12/12 07:09:42;;;;;;;;;;;;;;;;;;2074344;28;19914;-82
2021/12/12 07:10:43;;;;;;;;;;;;;;;;;;2074595;28;20260;-83
2021/12/12 07:11:45;;;;;;;;;;;;;;;;;;2074534;28;19988;-82
2021/12/12 07:12:46;;;;;;;;;;;;;;;;;;2074651;28;20251;-82
2021/12/12 07:13:47;;;;;;;;;;;;;;;;;;2083192;28;19917;-82
2021/12/12 07:14:48;;;;;;;;;;;;;;;;;;2082976;28;20350;-82
2021/12/12 07:15:49;;;;;;;;;;;;;;;;;;2082896;28;19928;-83
2021/12/12 07:16:50;;;;;;;;;;;;;;;;;;2082923;28;20428;-83
2021/12/12 07:17:55;;;;;;;;;;;;;;;;;;2083053;28;19913;-83
2021/12/12 07:18:55;;;;;;;;;;;;;;;;;;2082967;28;19913;-83
2021/12/12 07:19:56;;;;;;;;;;;;;;;;;;2082876;28;20275;-82
2021/12/12 07:20:58;;;;;;;;;;;;;;;;;;2074085;28;20003;-83
2021/12/12 07:22:02;;;;;;;;;;;;;;;;;;2074549;28;20393;-83
2021/12/12 07:23:03;;;;;;;;;;;;;;;;;;2082927;28;19922;-82
2021/12/12 07:24:04;;;;;;;;;;;;;;;;;;2082984;28;19940;-83
2021/12/12 07:25:06;;;;;;;;;;;;;;;;;;2074167;28;19952;-82
2021/12/12 07:26:07;;;;;;;;;;;;;;;;;;2074436;28;19981;-81
2021/12/12 07:27:08;;;;;;;;;;;;;;;;;;2082724;28;19916;-82
2021/12/12 07:28:08;;;;;;;;;;;;;;;;;;2074292;28;20370;-81
2021/12/12 07:29:08;;;;;;;;;;;;;;;;;;2074217;28;19913;-81
2021/12/12 07:30:11;;;;;;;;;;;;;;;;;;2083058;28;20358;-82